createdAt,value
2019-04-29T00:00:43.691Z,8.10
2019-04-29T00:03:13.269Z,8.10
2019-04-29T00:05:45.333Z,8.10
2019-04-29T00:08:14.578Z,8.10
2019-04-29T00:10:49.900Z,8.10
2019-04-29T00:13:19.746Z,8.00
2019-04-29T00:16:26.340Z,8.00
2019-04-29T00:19:23.810Z,7.90
2019-04-29T00:21:53.458Z,7.90
2019-04-29T00:24:22.644Z,7.80
2019-04-29T00:26:51.946Z,7.90
2019-04-29T00:29:21.216Z,7.80
2019-04-29T00:31:50.511Z,7.90
2019-04-29T00:34:19.860Z,8.00
2019-04-29T00:36:59.765Z,8.10
2019-04-29T00:40:03.512Z,8.10
2019-04-29T00:42:46.521Z,8.00
2019-04-29T00:45:16.065Z,7.90
2019-04-29T00:47:45.375Z,7.90
2019-04-29T00:50:15.161Z,7.90
2019-04-29T00:52:44.467Z,7.80
2019-04-29T00:55:16.403Z,7.80
2019-04-29T00:57:45.761Z,7.80
2019-04-29T01:00:24.143Z,7.90
2019-04-29T01:02:53.435Z,7.90
2019-04-29T01:05:22.829Z,7.80
2019-04-29T01:07:52.444Z,7.80
2019-04-29T01:10:22.024Z,7.70
2019-04-29T01:12:51.308Z,7.70
2019-04-29T01:15:20.908Z,7.60
2019-04-29T01:17:50.262Z,7.60
2019-04-29T01:20:19.557Z,7.60
2019-04-29T01:22:48.782Z,7.60
2019-04-29T01:25:18.000Z,7.60
2019-04-29T01:27:53.606Z,7.50
2019-04-29T01:31:03.856Z,7.50
2019-04-29T01:33:33.229Z,7.50
2019-04-29T01:36:20.083Z,7.50
2019-04-29T01:38:50.768Z,7.40
2019-04-29T01:41:22.436Z,7.40
2019-04-29T01:44:11.110Z,7.40
2019-04-29T01:46:49.218Z,7.40
2019-04-29T01:49:18.428Z,7.30
2019-04-29T01:51:56.638Z,7.30
2019-04-29T01:54:26.036Z,7.30
2019-04-29T01:56:55.230Z,7.30
2019-04-29T01:59:24.514Z,7.30
2019-04-29T02:01:53.840Z,7.30
2019-04-29T02:04:23.071Z,7.30
2019-04-29T02:06:52.774Z,7.20
2019-04-29T02:09:49.591Z,7.20
2019-04-29T02:12:18.767Z,7.30
2019-04-29T02:14:47.969Z,7.30
2019-04-29T02:17:17.211Z,7.30
2019-04-29T02:19:46.553Z,7.30
2019-04-29T02:22:39.535Z,7.20
2019-04-29T02:25:16.711Z,7.20
2019-04-29T02:27:47.897Z,7.10
2019-04-29T02:30:42.815Z,7.10
2019-04-29T02:33:12.093Z,7.10
2019-04-29T02:35:41.617Z,7.10
2019-04-29T02:38:16.427Z,7.00
2019-04-29T02:40:56.874Z,7.00
2019-04-29T02:43:29.237Z,6.90
2019-04-29T02:45:58.567Z,6.80
2019-04-29T02:48:31.635Z,6.80
2019-04-29T02:50:58.909Z,6.80
2019-04-29T02:53:28.242Z,6.70
2019-04-29T02:55:59.216Z,6.70
2019-04-29T02:58:46.696Z,6.60
2019-04-29T03:01:35.026Z,6.60
2019-04-29T03:04:13.130Z,6.50
2019-04-29T03:06:42.679Z,6.50
2019-04-29T03:09:11.857Z,6.50
2019-04-29T03:11:41.154Z,6.50
2019-04-29T03:14:10.397Z,6.50
2019-04-29T03:16:40.170Z,6.50
2019-04-29T03:19:15.670Z,6.50
2019-04-29T03:21:51.429Z,6.50
2019-04-29T03:24:39.711Z,6.40
2019-04-29T03:27:09.063Z,6.40
2019-04-29T03:29:38.262Z,6.30
2019-04-29T03:32:07.588Z,6.30
2019-04-29T03:34:36.948Z,6.20
2019-04-29T03:37:06.216Z,6.20
2019-04-29T03:39:35.734Z,6.20
2019-04-29T03:42:07.440Z,6.10
2019-04-29T03:44:36.137Z,6.10
2019-04-29T03:47:05.454Z,6.10
2019-04-29T03:49:34.646Z,6.10
2019-04-29T03:52:03.996Z,6.10
2019-04-29T03:54:33.396Z,6.00
2019-04-29T03:57:04.787Z,6.00
2019-04-29T03:59:34.009Z,6.00
2019-04-29T04:02:10.043Z,6.00
2019-04-29T04:05:04.622Z,5.90
2019-04-29T04:07:52.958Z,5.90
2019-04-29T04:10:22.441Z,5.90
2019-04-29T04:12:51.800Z,5.90
2019-04-29T04:15:21.194Z,5.90
2019-04-29T04:17:57.086Z,5.90
2019-04-29T04:20:26.774Z,5.80
2019-04-29T04:22:56.054Z,5.80
2019-04-29T04:25:25.279Z,5.90
2019-04-29T04:27:54.625Z,5.80
2019-04-29T04:30:23.915Z,5.90
2019-04-29T04:32:53.144Z,5.90
2019-04-29T04:35:22.370Z,5.90
2019-04-29T04:37:51.656Z,5.90
2019-04-29T04:40:43.589Z,5.90
2019-04-29T04:43:12.984Z,6.00
2019-04-29T04:45:42.340Z,6.10
2019-04-29T04:48:11.631Z,6.20
2019-04-29T04:50:40.972Z,6.30
2019-04-29T04:53:10.293Z,6.40
2019-04-29T04:55:41.322Z,6.50
2019-04-29T04:58:13.176Z,6.60
2019-04-29T05:00:42.710Z,6.70
2019-04-29T05:03:12.015Z,6.90
2019-04-29T05:05:42.838Z,7.00
2019-04-29T05:08:12.498Z,7.10
2019-04-29T05:10:41.693Z,7.20
2019-04-29T05:13:11.024Z,7.30
2019-04-29T05:15:42.390Z,7.40
2019-04-29T05:18:11.621Z,7.60
2019-04-29T05:20:41.006Z,7.70
2019-04-29T05:23:10.459Z,7.80
2019-04-29T05:25:39.816Z,7.80
2019-04-29T05:28:09.047Z,7.90
2019-04-29T05:30:38.388Z,7.90
2019-04-29T05:33:07.699Z,8.00
2019-04-29T05:35:56.604Z,8.10
2019-04-29T05:39:13.981Z,8.20
2019-04-29T05:41:43.309Z,8.40
2019-04-29T05:44:40.440Z,8.50
2019-04-29T05:47:18.144Z,8.60
2019-04-29T05:50:06.723Z,8.70
2019-04-29T05:52:55.234Z,8.70
2019-04-29T05:55:24.512Z,8.70
2019-04-29T05:58:02.895Z,8.60
2019-04-29T06:00:27.145Z,8.70
2019-04-29T06:02:56.352Z,8.70
2019-04-29T06:05:25.646Z,8.90
2019-04-29T06:07:56.098Z,9.10
2019-04-29T06:10:25.807Z,10.00
2019-04-29T06:12:55.048Z,11.30
2019-04-29T06:15:24.354Z,12.90
2019-04-29T06:17:53.638Z,13.60
2019-04-29T06:20:23.155Z,14.30
2019-04-29T06:22:52.376Z,15.10
2019-04-29T06:25:21.765Z,15.90
2019-04-29T06:27:51.076Z,16.20
2019-04-29T06:30:20.563Z,15.80
2019-04-29T06:32:49.930Z,16.70
2019-04-29T06:35:19.229Z,17.30
2019-04-29T06:37:48.449Z,18.50
2019-04-29T06:40:17.673Z,18.30
2019-04-29T06:42:49.419Z,18.50
2019-04-29T06:45:18.396Z,18.80
2019-04-29T06:47:47.645Z,19.00
2019-04-29T06:50:16.998Z,18.90
2019-04-29T06:52:46.575Z,19.00
2019-04-29T06:55:15.919Z,19.00
2019-04-29T06:57:45.183Z,20.00
2019-04-29T07:00:17.646Z,19.60
2019-04-29T07:02:49.866Z,19.60
2019-04-29T07:05:16.673Z,19.60
2019-04-29T07:07:45.926Z,20.30
2019-04-29T07:10:16.593Z,20.60
2019-04-29T07:12:47.459Z,21.30
2019-04-29T07:15:17.343Z,20.90
2019-04-29T07:17:46.664Z,21.00
2019-04-29T07:20:15.908Z,21.40
2019-04-29T07:22:45.221Z,21.70
2019-04-29T07:25:14.449Z,22.20
2019-04-29T07:27:44.589Z,22.20
2019-04-29T07:30:14.384Z,22.80
2019-04-29T07:32:47.227Z,22.50
2019-04-29T07:35:14.966Z,22.70
2019-04-29T07:37:44.282Z,22.80
2019-04-29T07:40:14.126Z,22.80
2019-04-29T07:42:43.450Z,22.90
2019-04-29T07:45:43.625Z,22.40
2019-04-29T07:48:06.468Z,22.40
2019-04-29T07:50:34.050Z,23.10
2019-04-29T07:53:03.624Z,23.90
2019-04-29T07:55:32.948Z,23.60
2019-04-29T07:58:02.205Z,23.50
2019-04-29T08:00:35.431Z,23.30
2019-04-29T08:03:07.464Z,21.80
2019-04-29T08:05:36.787Z,22.00
2019-04-29T08:08:06.177Z,21.50
2019-04-29T08:10:35.485Z,21.80
2019-04-29T08:13:04.925Z,21.50
2019-04-29T08:15:36.929Z,22.60
2019-04-29T08:18:06.718Z,22.20
2019-04-29T08:20:39.715Z,22.10
2019-04-29T08:23:07.349Z,22.70
2019-04-29T08:25:36.574Z,23.20
2019-04-29T08:28:05.774Z,22.90
2019-04-29T08:30:35.039Z,23.80
2019-04-29T08:33:07.514Z,24.10
2019-04-29T08:35:36.896Z,25.20
2019-04-29T08:38:06.541Z,24.50
2019-04-29T08:40:35.900Z,24.90
2019-04-29T08:43:27.059Z,25.60
2019-04-29T08:46:02.313Z,22.90
2019-04-29T08:48:31.711Z,22.90
2019-04-29T08:51:01.108Z,22.40
2019-04-29T08:53:30.398Z,22.10
2019-04-29T08:55:59.734Z,22.00
2019-04-29T08:58:29.134Z,21.30
2019-04-29T09:00:58.428Z,21.30
2019-04-29T09:03:39.689Z,21.70
2019-04-29T09:06:05.629Z,21.50
2019-04-29T09:08:32.812Z,21.10
2019-04-29T09:11:00.881Z,21.60
2019-04-29T09:13:30.204Z,22.10
2019-04-29T09:15:59.640Z,22.80
2019-04-29T09:18:29.010Z,22.70
2019-04-29T09:20:58.426Z,21.80
2019-04-29T09:23:30.259Z,21.30
2019-04-29T09:26:17.363Z,21.20
2019-04-29T09:28:49.607Z,20.90
2019-04-29T09:31:18.070Z,19.70
2019-04-29T09:34:07.089Z,19.30
2019-04-29T09:36:36.471Z,19.40
2019-04-29T09:39:06.395Z,19.80
2019-04-29T09:41:49.861Z,18.80
2019-04-29T09:44:40.240Z,18.80
2019-04-29T09:47:10.287Z,19.10
2019-04-29T09:49:39.659Z,20.00
2019-04-29T09:52:08.950Z,21.40
2019-04-29T09:54:39.277Z,22.10
2019-04-29T09:57:08.527Z,21.60
2019-04-29T09:59:42.917Z,22.20
2019-04-29T10:02:26.548Z,21.70
2019-04-29T10:05:18.154Z,21.80
2019-04-29T10:07:47.465Z,22.80
2019-04-29T10:10:17.042Z,23.00
2019-04-29T10:12:46.328Z,23.50
2019-04-29T10:15:17.462Z,23.20
2019-04-29T10:17:56.318Z,22.80
2019-04-29T10:20:39.303Z,23.20
2019-04-29T10:23:08.696Z,23.60
2019-04-29T10:25:37.948Z,24.80
2019-04-29T10:28:07.559Z,24.40
2019-04-29T10:30:36.982Z,23.70
2019-04-29T10:33:25.916Z,22.70
2019-04-29T10:35:55.176Z,21.10
2019-04-29T10:38:24.658Z,19.70
2019-04-29T10:41:04.574Z,19.00
2019-04-29T10:43:55.407Z,19.00
2019-04-29T10:46:43.417Z,18.90
2019-04-29T10:49:19.763Z,18.70
2019-04-29T10:51:49.178Z,18.90
2019-04-29T10:54:18.594Z,18.80
2019-04-29T10:56:48.427Z,18.80
2019-04-29T10:59:18.635Z,18.70
2019-04-29T11:02:33.917Z,19.00
2019-04-29T11:05:21.427Z,19.00
2019-04-29T11:07:52.380Z,18.30
2019-04-29T11:10:31.794Z,18.60
2019-04-29T11:13:01.065Z,18.40
2019-04-29T11:15:37.243Z,18.30
2019-04-29T11:18:07.192Z,17.90
2019-04-29T11:20:36.922Z,18.20
2019-04-29T11:23:31.751Z,18.40
2019-04-29T11:26:40.617Z,18.40
2019-04-29T11:29:09.956Z,18.40
2019-04-29T11:31:39.369Z,18.70
2019-04-29T11:34:19.273Z,18.30
2019-04-29T11:36:48.814Z,18.10
2019-04-29T11:39:18.407Z,18.00
2019-04-29T11:41:50.058Z,18.30
2019-04-29T11:44:21.969Z,18.70
2019-04-29T11:46:50.701Z,18.90
2019-04-29T11:49:23.820Z,18.80
2019-04-29T11:52:08.614Z,18.60
2019-04-29T11:54:24.282Z,18.40
2019-04-29T11:56:53.548Z,18.40
2019-04-29T11:59:45.307Z,18.80
2019-04-29T12:02:44.122Z,18.90
2019-04-29T12:05:04.157Z,18.80
2019-04-29T12:07:34.083Z,18.40
2019-04-29T12:10:06.489Z,18.10
2019-04-29T12:12:35.306Z,18.00
2019-04-29T12:15:24.136Z,17.90
2019-04-29T12:18:04.042Z,18.30
2019-04-29T12:20:41.723Z,18.30
2019-04-29T12:23:15.281Z,18.40
2019-04-29T12:25:49.537Z,18.80
2019-04-29T12:28:19.739Z,18.80
2019-04-29T12:30:50.795Z,18.40
2019-04-29T12:33:28.115Z,17.90
2019-04-29T12:36:05.125Z,17.60
2019-04-29T12:38:59.133Z,17.70
2019-04-29T12:41:49.016Z,17.90
2019-04-29T12:44:48.383Z,18.00
2019-04-29T12:47:26.632Z,18.00
2019-04-29T12:49:56.017Z,18.40
2019-04-29T12:52:26.012Z,18.50
2019-04-29T12:54:55.241Z,18.80
2019-04-29T12:57:24.817Z,18.40
2019-04-29T13:00:18.318Z,18.10
2019-04-29T13:03:09.469Z,18.40
2019-04-29T13:05:58.267Z,18.70
2019-04-29T13:08:46.185Z,18.60
2019-04-29T13:11:19.329Z,18.50
2019-04-29T13:13:46.727Z,18.40
2019-04-29T13:16:43.296Z,18.10
2019-04-29T13:19:29.708Z,18.30
2019-04-29T13:21:59.351Z,18.50
2019-04-29T13:24:28.733Z,18.50
2019-04-29T13:26:58.066Z,18.40
2019-04-29T13:29:27.939Z,18.30
2019-04-29T13:32:01.652Z,18.00
2019-04-29T13:34:34.139Z,17.90
2019-04-29T13:37:08.297Z,18.00
2019-04-29T13:39:39.593Z,18.30
2019-04-29T13:42:08.643Z,18.10
2019-04-29T13:44:42.038Z,18.00
2019-04-29T13:47:31.063Z,17.60
2019-04-29T13:50:18.500Z,17.70
2019-04-29T13:52:38.247Z,17.80
2019-04-29T13:55:17.079Z,18.00
2019-04-29T13:57:38.705Z,18.10
2019-04-29T14:00:30.421Z,18.20
2019-04-29T14:03:17.376Z,18.10
2019-04-29T14:05:46.747Z,17.80
2019-04-29T14:08:16.031Z,17.60
2019-04-29T14:10:46.759Z,17.60
2019-04-29T14:13:18.905Z,17.60
2019-04-29T14:15:47.277Z,17.60
2019-04-29T14:18:16.583Z,17.50
2019-04-29T14:20:47.295Z,17.40
2019-04-29T14:23:16.907Z,17.50
2019-04-29T14:25:46.154Z,17.70
2019-04-29T14:28:15.349Z,17.80
2019-04-29T14:30:47.601Z,17.60
2019-04-29T14:33:19.322Z,17.40
2019-04-29T14:36:02.384Z,17.40
2019-04-29T14:38:31.708Z,17.60
2019-04-29T14:41:00.920Z,17.70
2019-04-29T14:43:55.108Z,17.60
2019-04-29T14:46:37.418Z,17.50
2019-04-29T14:49:13.389Z,17.60
2019-04-29T14:51:42.585Z,17.50
2019-04-29T14:54:11.930Z,17.40
2019-04-29T14:56:41.382Z,17.30
2019-04-29T14:59:10.784Z,17.20
2019-04-29T15:01:49.100Z,17.00
2019-04-29T15:04:21.372Z,17.10
2019-04-29T15:06:50.650Z,17.20
2019-04-29T15:09:20.157Z,17.20
2019-04-29T15:12:03.706Z,17.20
2019-04-29T15:14:59.245Z,17.10
2019-04-29T15:17:48.524Z,17.00
2019-04-29T15:20:29.626Z,17.10
2019-04-29T15:22:55.743Z,17.20
2019-04-29T15:25:24.935Z,17.10
2019-04-29T15:27:54.243Z,17.10
2019-04-29T15:30:23.499Z,17.00
2019-04-29T15:32:53.181Z,17.10
2019-04-29T15:35:24.334Z,17.20
2019-04-29T15:37:54.657Z,17.20
2019-04-29T15:40:46.136Z,17.00
2019-04-29T15:43:17.940Z,17.20
2019-04-29T15:45:46.399Z,17.20
2019-04-29T15:48:15.675Z,17.00
2019-04-29T15:50:44.924Z,16.90
2019-04-29T15:53:23.471Z,16.90
2019-04-29T15:56:06.063Z,17.00
2019-04-29T15:58:27.555Z,17.00
2019-04-29T16:01:10.675Z,17.10
2019-04-29T16:03:25.780Z,17.10
2019-04-29T16:06:21.770Z,17.00
2019-04-29T16:08:59.069Z,17.00
2019-04-29T16:11:45.535Z,17.30
2019-04-29T16:14:20.688Z,17.30
2019-04-29T16:16:50.032Z,17.10
2019-04-29T16:19:19.332Z,17.00
2019-04-29T16:21:50.644Z,17.10
2019-04-29T16:24:26.498Z,17.10
2019-04-29T16:26:53.597Z,16.90
2019-04-29T16:29:21.886Z,16.80
2019-04-29T16:31:54.954Z,16.80
2019-04-29T16:34:22.237Z,16.80
2019-04-29T16:36:52.570Z,16.80
2019-04-29T16:39:22.055Z,16.60
2019-04-29T16:42:16.367Z,16.60
2019-04-29T16:44:46.513Z,16.70
2019-04-29T16:47:16.485Z,16.40
2019-04-29T16:49:45.760Z,16.20
2019-04-29T16:52:15.080Z,16.10
2019-04-29T16:54:44.272Z,16.10
2019-04-29T16:57:13.490Z,16.00
2019-04-29T16:59:42.797Z,16.00
2019-04-29T17:02:18.938Z,15.90
2019-04-29T17:04:43.667Z,15.80
2019-04-29T17:07:14.761Z,15.70
2019-04-29T17:10:12.581Z,15.60
2019-04-29T17:12:46.791Z,15.60
2019-04-29T17:15:24.612Z,15.50
2019-04-29T17:17:47.879Z,15.40
2019-04-29T17:20:17.691Z,15.50
2019-04-29T17:22:47.061Z,15.40
2019-04-29T17:25:16.764Z,15.20
2019-04-29T17:28:03.009Z,15.20
2019-04-29T17:30:50.593Z,15.10
2019-04-29T17:33:28.035Z,15.10
2019-04-29T17:35:56.950Z,14.90
2019-04-29T17:38:26.305Z,14.80
2019-04-29T17:40:55.856Z,14.80
2019-04-29T17:43:50.059Z,14.80
2019-04-29T17:46:53.660Z,14.70
2019-04-29T17:49:35.050Z,14.40
2019-04-29T17:52:06.851Z,14.40
2019-04-29T17:54:40.130Z,14.20
2019-04-29T17:57:30.750Z,14.10
2019-04-29T18:00:28.390Z,14.00
2019-04-29T18:03:34.772Z,13.90
2019-04-29T18:06:17.226Z,13.90
2019-04-29T18:08:58.698Z,13.80
2019-04-29T18:11:28.515Z,13.70
2019-04-29T18:13:58.138Z,13.80
2019-04-29T18:16:39.551Z,13.70
2019-04-29T18:19:17.346Z,13.70
2019-04-29T18:22:04.192Z,13.60
2019-04-29T18:24:44.973Z,13.60
2019-04-29T18:27:18.155Z,13.70
2019-04-29T18:29:47.643Z,13.60
2019-04-29T18:32:18.189Z,13.50
2019-04-29T18:34:47.753Z,13.40
2019-04-29T18:37:17.565Z,13.30
2019-04-29T18:39:46.865Z,13.40
2019-04-29T18:42:16.473Z,13.40
2019-04-29T18:44:55.176Z,13.20
2019-04-29T18:47:22.504Z,13.10
2019-04-29T18:49:48.107Z,13.10
2019-04-29T18:52:25.331Z,13.10
2019-04-29T18:54:48.575Z,13.00
2019-04-29T18:57:27.734Z,13.00
2019-04-29T18:59:49.048Z,13.00
2019-04-29T19:02:18.343Z,13.00
2019-04-29T19:05:02.706Z,13.00
2019-04-29T19:07:37.210Z,12.90
2019-04-29T19:10:07.670Z,12.90
2019-04-29T19:12:36.446Z,12.90
2019-04-29T19:15:11.446Z,12.80
2019-04-29T19:17:39.985Z,12.80
2019-04-29T19:20:12.943Z,12.70
2019-04-29T19:22:40.069Z,12.70
2019-04-29T19:25:12.097Z,12.70
2019-04-29T19:27:41.660Z,12.70
2019-04-29T19:30:16.240Z,12.70
2019-04-29T19:32:45.061Z,12.70
2019-04-29T19:35:16.989Z,12.70
2019-04-29T19:37:46.470Z,12.70
2019-04-29T19:40:15.883Z,12.80
2019-04-29T19:42:46.946Z,12.80
2019-04-29T19:45:17.449Z,12.70
2019-04-29T19:47:50.772Z,12.60
2019-04-29T19:50:19.653Z,12.60
2019-04-29T19:52:49.034Z,12.60
2019-04-29T19:55:18.487Z,12.50
2019-04-29T19:57:51.905Z,12.40
2019-04-29T20:00:19.650Z,12.40
2019-04-29T20:02:51.024Z,12.40
2019-04-29T20:05:31.632Z,12.40
2019-04-29T20:07:59.026Z,12.40
2019-04-29T20:10:30.146Z,12.50
2019-04-29T20:13:19.687Z,12.40
2019-04-29T20:16:10.993Z,12.40
2019-04-29T20:19:01.511Z,12.50
2019-04-29T20:21:32.574Z,12.30
2019-04-29T20:24:02.172Z,12.30
2019-04-29T20:26:31.862Z,12.30
2019-04-29T20:29:01.344Z,12.30
2019-04-29T20:31:31.035Z,12.20
2019-04-29T20:34:01.689Z,12.30
2019-04-29T20:36:40.953Z,12.20
2019-04-29T20:39:02.551Z,12.20
2019-04-29T20:41:41.197Z,12.20
2019-04-29T20:44:05.876Z,12.10
2019-04-29T20:46:45.056Z,12.00
2019-04-29T20:49:05.824Z,12.00
2019-04-29T20:51:48.657Z,12.00
2019-04-29T20:54:19.048Z,12.00
2019-04-29T20:56:47.009Z,12.00
2019-04-29T20:59:15.979Z,12.00
2019-04-29T21:01:49.246Z,12.00
2019-04-29T21:04:31.238Z,12.00
2019-04-29T21:06:59.715Z,12.00
2019-04-29T21:09:26.293Z,12.00
2019-04-29T21:12:10.478Z,12.00
2019-04-29T21:14:49.105Z,12.00
2019-04-29T21:17:28.725Z,12.00
2019-04-29T21:19:49.798Z,12.00
2019-04-29T21:22:23.471Z,12.00
2019-04-29T21:24:53.923Z,11.90
2019-04-29T21:27:22.535Z,12.00
2019-04-29T21:29:54.073Z,11.90
2019-04-29T21:32:25.628Z,11.90
2019-04-29T21:35:26.990Z,11.90
2019-04-29T21:38:21.859Z,11.90
2019-04-29T21:40:53.671Z,11.90
2019-04-29T21:43:26.089Z,11.80
2019-04-29T21:45:55.693Z,11.80
2019-04-29T21:48:33.070Z,11.90
2019-04-29T21:50:56.171Z,11.90
2019-04-29T21:53:25.665Z,11.90
2019-04-29T21:55:55.455Z,11.80
2019-04-29T21:58:28.642Z,11.70
2019-04-29T22:01:04.983Z,11.70
2019-04-29T22:03:34.322Z,11.70
2019-04-29T22:06:03.628Z,11.70
2019-04-29T22:08:32.969Z,11.70
2019-04-29T22:11:04.810Z,11.70
2019-04-29T22:13:35.583Z,11.70
2019-04-29T22:16:04.642Z,11.60
2019-04-29T22:18:35.478Z,11.60
2019-04-29T22:21:07.631Z,11.50
2019-04-29T22:23:35.962Z,11.50
2019-04-29T22:26:05.233Z,11.50
2019-04-29T22:28:35.140Z,11.50
2019-04-29T22:31:05.469Z,11.50
2019-04-29T22:33:38.521Z,11.50
2019-04-29T22:36:10.100Z,11.50
2019-04-29T22:38:37.747Z,11.50
2019-04-29T22:41:26.583Z,11.50
2019-04-29T22:44:00.066Z,11.50
2019-04-29T22:46:29.352Z,11.50
2019-04-29T22:48:58.622Z,11.50
2019-04-29T22:51:49.781Z,11.50
2019-04-29T22:54:22.001Z,11.50
2019-04-29T22:56:52.136Z,11.60
2019-04-29T22:59:20.250Z,11.60
2019-04-29T23:01:50.707Z,11.60
2019-04-29T23:04:20.007Z,11.60
2019-04-29T23:06:49.322Z,11.60
2019-04-29T23:09:18.562Z,11.50
2019-04-29T23:11:47.889Z,11.60
2019-04-29T23:14:17.255Z,11.60
2019-04-29T23:16:47.501Z,11.50
2019-04-29T23:19:18.445Z,11.50
2019-04-29T23:22:22.261Z,11.50
2019-04-29T23:24:55.771Z,11.50
2019-04-29T23:27:31.185Z,11.50
2019-04-29T23:30:00.755Z,11.50
2019-04-29T23:32:30.498Z,11.50
2019-04-29T23:35:08.310Z,11.50
2019-04-29T23:37:35.860Z,11.50
2019-04-29T23:40:06.686Z,11.50
2019-04-29T23:42:36.416Z,11.50
2019-04-29T23:45:06.868Z,11.60
2019-04-29T23:47:36.676Z,11.50
2019-04-29T23:50:07.607Z,11.50
2019-04-29T23:52:37.268Z,11.40
2019-04-29T23:55:08.156Z,11.40
2019-04-29T23:57:46.476Z,11.40
